Archival Weather

Norman Y Mineta San Jose Intl

San Jose, California (KSJC)

Report from: Wednesday, April 3, 2024 4:53 PM PDT
Current time: Tuesday, May 21, 2024 9:21 AM PDT

Current weather – Weather history – Daily summaries
Weather forecast

Temperature17.2°C (63.0°F)
Dew point9.4°C (48.9°F)
Winds 14 kts (7.2 m/s, 16.1 mph) North-Northwest (330°)
Visibility10 mi. (16.1 km)
Clouds Scattered clouds 2,000 ft. (610 m)
Scattered clouds 3,500 ft. (1,067 m)
Ceiling: Broken clouds 8,000 ft. (2,438 m)
Altimeter30.05 in.Hg (1018 mB)
Relative humidity60 %
Density altitude280 ft. (85 m)
Sea-level pressure101.8 kPa (1018 mB, 30.05 in.Hg)
Max temp last 6 hours19.4°C (66.9°F)
Min temp last 6 hours16.1°C (61.0°F)
Remarks Automated weather observing station with precipitation discriminator
Pressure falling more slowly
Flight conditions Visual Meteorological Conditions
Raw dataKSJC 032353Z 33014KT 10SM SCT020 SCT035 BKN080 17/09 A3005 RMK AO2 SLP176 T01720094 10194 20161 56022
An error has occurred. This application may no longer respond until reloaded. Reload 🗙